sensor_id;sensor_type;location;lat;lon;timestamp;P1;durP1;ratioP1;P2;durP2;ratioP2
1507;SDS011;745;48.586;10.032;2023-04-23T00:02:58;5.80;;;3.50;;
1507;SDS011;745;48.586;10.032;2023-04-23T00:07:31;3.57;;;3.23;;
1507;SDS011;745;48.586;10.032;2023-04-23T00:12:02;4.00;;;3.60;;
1507;SDS011;745;48.586;10.032;2023-04-23T00:16:33;7.57;;;3.40;;
1507;SDS011;745;48.586;10.032;2023-04-23T00:21:04;4.30;;;3.33;;
1507;SDS011;745;48.586;10.032;2023-04-23T00:25:34;3.87;;;3.03;;
1507;SDS011;745;48.586;10.032;2023-04-23T00:30:05;3.33;;;3.03;;
1507;SDS011;745;48.586;10.032;2023-04-23T00:34:35;5.43;;;3.00;;
1507;SDS011;745;48.586;10.032;2023-04-23T00:39:22;3.17;;;2.77;;
1507;SDS011;745;48.586;10.032;2023-04-23T00:43:54;2.63;;;2.40;;
1507;SDS011;745;48.586;10.032;2023-04-23T00:48:27;3.40;;;2.53;;
1507;SDS011;745;48.586;10.032;2023-04-23T00:52:58;2.60;;;2.30;;
1507;SDS011;745;48.586;10.032;2023-04-23T00:57:29;4.30;;;3.13;;
1507;SDS011;745;48.586;10.032;2023-04-23T01:02:00;3.03;;;2.70;;
1507;SDS011;745;48.586;10.032;2023-04-23T01:06:40;3.07;;;2.77;;
1507;SDS011;745;48.586;10.032;2023-04-23T01:11:12;5.20;;;3.20;;
1507;SDS011;745;48.586;10.032;2023-04-23T01:15:51;3.10;;;2.73;;
1507;SDS011;745;48.586;10.032;2023-04-23T01:20:24;3.60;;;3.00;;
1507;SDS011;745;48.586;10.032;2023-04-23T01:24:55;3.40;;;2.87;;
1507;SDS011;745;48.586;10.032;2023-04-23T01:29:26;3.80;;;3.10;;
1507;SDS011;745;48.586;10.032;2023-04-23T01:33:57;4.50;;;2.90;;
1507;SDS011;745;48.586;10.032;2023-04-23T01:38:30;6.57;;;4.10;;
1507;SDS011;745;48.586;10.032;2023-04-23T01:43:02;5.27;;;3.90;;
1507;SDS011;745;48.586;10.032;2023-04-23T01:47:46;4.23;;;3.57;;
1507;SDS011;745;48.586;10.032;2023-04-23T01:52:24;5.47;;;3.87;;
1507;SDS011;745;48.586;10.032;2023-04-23T01:56:54;5.93;;;4.00;;
1507;SDS011;745;48.586;10.032;2023-04-23T02:01:24;5.33;;;3.70;;
1507;SDS011;745;48.586;10.032;2023-04-23T02:05:56;5.90;;;3.80;;
1507;SDS011;745;48.586;10.032;2023-04-23T02:10:27;6.63;;;3.90;;
1507;SDS011;745;48.586;10.032;2023-04-23T02:15:10;4.73;;;3.93;;
1507;SDS011;745;48.586;10.032;2023-04-23T02:19:41;7.43;;;4.20;;
1507;SDS011;745;48.586;10.032;2023-04-23T02:24:11;7.73;;;4.20;;
1507;SDS011;745;48.586;10.032;2023-04-23T02:28:42;5.47;;;3.90;;
1507;SDS011;745;48.586;10.032;2023-04-23T02:33:12;7.10;;;4.20;;
1507;SDS011;745;48.586;10.032;2023-04-23T02:37:43;4.30;;;3.90;;
1507;SDS011;745;48.586;10.032;2023-04-23T02:42:13;5.97;;;3.90;;
1507;SDS011;745;48.586;10.032;2023-04-23T02:46:43;6.67;;;4.10;;
1507;SDS011;745;48.586;10.032;2023-04-23T02:51:14;5.10;;;4.10;;
1507;SDS011;745;48.586;10.032;2023-04-23T02:55:50;7.40;;;4.70;;
1507;SDS011;745;48.586;10.032;2023-04-23T03:00:21;5.40;;;4.90;;
1507;SDS011;745;48.586;10.032;2023-04-23T03:04:51;5.93;;;4.20;;
1507;SDS011;745;48.586;10.032;2023-04-23T03:09:21;5.60;;;4.83;;
1507;SDS011;745;48.586;10.032;2023-04-23T03:13:52;7.07;;;4.23;;
1507;SDS011;745;48.586;10.032;2023-04-23T03:18:22;4.83;;;4.43;;
1507;SDS011;745;48.586;10.032;2023-04-23T03:22:53;6.53;;;4.80;;
1507;SDS011;745;48.586;10.032;2023-04-23T03:27:23;5.17;;;4.67;;
1507;SDS011;745;48.586;10.032;2023-04-23T03:31:53;4.20;;;3.90;;
1507;SDS011;745;48.586;10.032;2023-04-23T03:36:24;5.03;;;4.17;;
1507;SDS011;745;48.586;10.032;2023-04-23T03:40:54;4.67;;;4.20;;
1507;SDS011;745;48.586;10.032;2023-04-23T03:45:25;4.70;;;3.47;;
1507;SDS011;745;48.586;10.032;2023-04-23T03:49:56;4.90;;;4.40;;
1507;SDS011;745;48.586;10.032;2023-04-23T03:54:26;4.30;;;3.90;;
1507;SDS011;745;48.586;10.032;2023-04-23T03:58:57;7.07;;;4.60;;
1507;SDS011;745;48.586;10.032;2023-04-23T04:03:27;4.57;;;3.37;;
1507;SDS011;745;48.586;10.032;2023-04-23T04:08:07;3.50;;;3.00;;
1507;SDS011;745;48.586;10.032;2023-04-23T04:12:37;5.33;;;4.17;;
1507;SDS011;745;48.586;10.032;2023-04-23T04:17:08;9.17;;;3.87;;
1507;SDS011;745;48.586;10.032;2023-04-23T04:21:39;5.70;;;4.47;;
1507;SDS011;745;48.586;10.032;2023-04-23T04:26:09;4.87;;;4.20;;
1507;SDS011;745;48.586;10.032;2023-04-23T04:30:39;5.20;;;4.70;;
1507;SDS011;745;48.586;10.032;2023-04-23T04:35:12;4.80;;;4.40;;
1507;SDS011;745;48.586;10.032;2023-04-23T04:39:43;4.47;;;4.07;;
1507;SDS011;745;48.586;10.032;2023-04-23T04:44:13;6.10;;;5.30;;
1507;SDS011;745;48.586;10.032;2023-04-23T04:48:45;6.53;;;5.10;;
1507;SDS011;745;48.586;10.032;2023-04-23T04:53:16;4.73;;;4.10;;
1507;SDS011;745;48.586;10.032;2023-04-23T04:57:46;6.33;;;5.80;;
1507;SDS011;745;48.586;10.032;2023-04-23T05:02:17;5.80;;;5.10;;
1507;SDS011;745;48.586;10.032;2023-04-23T05:06:47;5.83;;;5.07;;
1507;SDS011;745;48.586;10.032;2023-04-23T05:11:18;6.00;;;5.40;;
1507;SDS011;745;48.586;10.032;2023-04-23T05:15:51;7.77;;;6.40;;
1507;SDS011;745;48.586;10.032;2023-04-23T05:20:21;8.00;;;6.13;;
1507;SDS011;745;48.586;10.032;2023-04-23T05:24:51;4.83;;;4.43;;
1507;SDS011;745;48.586;10.032;2023-04-23T05:29:22;5.43;;;4.93;;
1507;SDS011;745;48.586;10.032;2023-04-23T05:33:52;8.80;;;5.30;;
1507;SDS011;745;48.586;10.032;2023-04-23T05:38:22;5.77;;;5.23;;
1507;SDS011;745;48.586;10.032;2023-04-23T05:42:53;7.60;;;6.50;;
1507;SDS011;745;48.586;10.032;2023-04-23T05:47:23;7.63;;;6.40;;
1507;SDS011;745;48.586;10.032;2023-04-23T05:51:54;8.20;;;6.80;;
1507;SDS011;745;48.586;10.032;2023-04-23T05:56:25;7.07;;;6.20;;
1507;SDS011;745;48.586;10.032;2023-04-23T06:00:55;7.43;;;5.77;;
1507;SDS011;745;48.586;10.032;2023-04-23T06:05:26;7.30;;;5.30;;
1507;SDS011;745;48.586;10.032;2023-04-23T06:09:57;6.27;;;5.67;;
1507;SDS011;745;48.586;10.032;2023-04-23T06:14:27;5.50;;;5.00;;
1507;SDS011;745;48.586;10.032;2023-04-23T06:18:59;7.87;;;6.20;;
1507;SDS011;745;48.586;10.032;2023-04-23T06:23:30;6.37;;;5.30;;
1507;SDS011;745;48.586;10.032;2023-04-23T06:28:01;8.20;;;6.90;;
1507;SDS011;745;48.586;10.032;2023-04-23T06:32:31;8.17;;;7.40;;
1507;SDS011;745;48.586;10.032;2023-04-23T06:37:06;8.30;;;7.50;;
1507;SDS011;745;48.586;10.032;2023-04-23T06:41:38;7.90;;;7.10;;
1507;SDS011;745;48.586;10.032;2023-04-23T06:46:10;5.90;;;5.37;;
1507;SDS011;745;48.586;10.032;2023-04-23T06:50:40;7.07;;;6.27;;
1507;SDS011;745;48.586;10.032;2023-04-23T06:55:11;6.40;;;5.30;;
1507;SDS011;745;48.586;10.032;2023-04-23T06:59:41;6.50;;;5.53;;
1507;SDS011;745;48.586;10.032;2023-04-23T07:04:12;7.63;;;6.43;;
1507;SDS011;745;48.586;10.032;2023-04-23T07:08:44;6.90;;;6.20;;
1507;SDS011;745;48.586;10.032;2023-04-23T07:13:14;8.93;;;7.70;;
1507;SDS011;745;48.586;10.032;2023-04-23T07:17:45;9.63;;;8.73;;
1507;SDS011;745;48.586;10.032;2023-04-23T07:22:16;10.53;;;7.60;;
1507;SDS011;745;48.586;10.032;2023-04-23T07:26:46;10.10;;;7.90;;
1507;SDS011;745;48.586;10.032;2023-04-23T07:31:16;8.13;;;6.90;;
1507;SDS011;745;48.586;10.032;2023-04-23T07:35:47;9.43;;;8.53;;
1507;SDS011;745;48.586;10.032;2023-04-23T07:40:17;12.07;;;10.83;;
1507;SDS011;745;48.586;10.032;2023-04-23T07:44:49;8.90;;;8.00;;
1507;SDS011;745;48.586;10.032;2023-04-23T07:49:19;14.23;;;10.60;;
1507;SDS011;745;48.586;10.032;2023-04-23T07:53:50;12.30;;;10.87;;
1507;SDS011;745;48.586;10.032;2023-04-23T07:58:23;10.83;;;9.73;;
1507;SDS011;745;48.586;10.032;2023-04-23T08:02:54;9.87;;;8.87;;
1507;SDS011;745;48.586;10.032;2023-04-23T08:07:25;9.00;;;8.20;;
1507;SDS011;745;48.586;10.032;2023-04-23T08:11:55;6.30;;;5.70;;
1507;SDS011;745;48.586;10.032;2023-04-23T08:16:27;11.30;;;9.30;;
1507;SDS011;745;48.586;10.032;2023-04-23T08:20:57;7.83;;;7.07;;
1507;SDS011;745;48.586;10.032;2023-04-23T08:25:28;9.00;;;7.07;;
1507;SDS011;745;48.586;10.032;2023-04-23T08:29:58;5.23;;;4.83;;
1507;SDS011;745;48.586;10.032;2023-04-23T08:34:29;6.30;;;5.70;;
1507;SDS011;745;48.586;10.032;2023-04-23T08:38:59;4.83;;;4.43;;
1507;SDS011;745;48.586;10.032;2023-04-23T08:43:31;5.00;;;4.60;;
1507;SDS011;745;48.586;10.032;2023-04-23T08:48:09;5.73;;;3.90;;
1507;SDS011;745;48.586;10.032;2023-04-23T08:52:40;4.90;;;4.50;;
1507;SDS011;745;48.586;10.032;2023-04-23T08:57:11;4.67;;;4.27;;
1507;SDS011;745;48.586;10.032;2023-04-23T09:01:43;4.93;;;4.43;;
1507;SDS011;745;48.586;10.032;2023-04-23T09:06:13;4.50;;;3.90;;
1507;SDS011;745;48.586;10.032;2023-04-23T09:10:43;5.00;;;4.50;;
1507;SDS011;745;48.586;10.032;2023-04-23T09:15:14;4.63;;;4.10;;
1507;SDS011;745;48.586;10.032;2023-04-23T09:19:45;4.47;;;4.03;;
1507;SDS011;745;48.586;10.032;2023-04-23T09:24:16;8.03;;;4.50;;
1507;SDS011;745;48.586;10.032;2023-04-23T09:28:49;3.73;;;3.40;;
1507;SDS011;745;48.586;10.032;2023-04-23T09:33:20;5.17;;;4.23;;
1507;SDS011;745;48.586;10.032;2023-04-23T09:37:50;4.40;;;4.00;;
1507;SDS011;745;48.586;10.032;2023-04-23T09:42:22;3.10;;;2.90;;
1507;SDS011;745;48.586;10.032;2023-04-23T09:46:54;2.70;;;2.40;;
1507;SDS011;745;48.586;10.032;2023-04-23T09:51:24;2.07;;;1.90;;
1507;SDS011;745;48.586;10.032;2023-04-23T09:55:57;2.97;;;2.63;;
1507;SDS011;745;48.586;10.032;2023-04-23T10:00:28;2.67;;;2.47;;
1507;SDS011;745;48.586;10.032;2023-04-23T10:05:06;3.03;;;2.73;;
1507;SDS011;745;48.586;10.032;2023-04-23T10:09:43;3.00;;;2.60;;
1507;SDS011;745;48.586;10.032;2023-04-23T10:14:14;3.43;;;3.13;;
1507;SDS011;745;48.586;10.032;2023-04-23T10:18:44;3.40;;;2.70;;
1507;SDS011;745;48.586;10.032;2023-04-23T10:23:15;3.93;;;3.30;;
1507;SDS011;745;48.586;10.032;2023-04-23T10:27:46;2.90;;;2.70;;
1507;SDS011;745;48.586;10.032;2023-04-23T10:32:18;4.07;;;3.67;;
1507;SDS011;745;48.586;10.032;2023-04-23T10:36:50;7.37;;;6.40;;
1507;SDS011;745;48.586;10.032;2023-04-23T10:41:21;17.10;;;11.60;;
1507;SDS011;745;48.586;10.032;2023-04-23T10:45:53;7.80;;;6.97;;
1507;SDS011;745;48.586;10.032;2023-04-23T10:50:24;44.33;;;29.47;;
1507;SDS011;745;48.586;10.032;2023-04-23T10:54:56;21.40;;;15.63;;
1507;SDS011;745;48.586;10.032;2023-04-23T10:59:29;14.70;;;12.63;;
1507;SDS011;745;48.586;10.032;2023-04-23T11:04:18;6.53;;;5.23;;
1507;SDS011;745;48.586;10.032;2023-04-23T11:08:50;7.70;;;6.53;;
1507;SDS011;745;48.586;10.032;2023-04-23T11:13:26;5.13;;;4.30;;
1507;SDS011;745;48.586;10.032;2023-04-23T11:17:58;4.47;;;3.30;;
1507;SDS011;745;48.586;10.032;2023-04-23T11:22:40;3.37;;;3.07;;
1507;SDS011;745;48.586;10.032;2023-04-23T11:27:12;4.30;;;3.90;;
1507;SDS011;745;48.586;10.032;2023-04-23T11:31:44;2.73;;;2.50;;
1507;SDS011;745;48.586;10.032;2023-04-23T11:36:14;2.67;;;2.30;;
1507;SDS011;745;48.586;10.032;2023-04-23T11:40:45;2.60;;;2.40;;
1507;SDS011;745;48.586;10.032;2023-04-23T11:49:50;2.40;;;2.20;;
1507;SDS011;745;48.586;10.032;2023-04-23T11:54:24;2.33;;;1.80;;
1507;SDS011;745;48.586;10.032;2023-04-23T11:58:59;2.70;;;2.50;;
1507;SDS011;745;48.586;10.032;2023-04-23T12:03:32;3.17;;;1.90;;
1507;SDS011;745;48.586;10.032;2023-04-23T12:08:08;2.50;;;2.20;;
1507;SDS011;745;48.586;10.032;2023-04-23T12:12:39;3.17;;;2.80;;
1507;SDS011;745;48.586;10.032;2023-04-23T12:17:10;3.20;;;2.90;;
1507;SDS011;745;48.586;10.032;2023-04-23T12:26:20;3.07;;;2.30;;
1507;SDS011;745;48.586;10.032;2023-04-23T12:30:50;2.00;;;1.80;;
1507;SDS011;745;48.586;10.032;2023-04-23T12:35:21;1.70;;;1.60;;
1507;SDS011;745;48.586;10.032;2023-04-23T12:40:09;3.90;;;3.50;;
1507;SDS011;745;48.586;10.032;2023-04-23T12:44:39;2.47;;;2.27;;
1507;SDS011;745;48.586;10.032;2023-04-23T12:49:10;1.83;;;1.73;;
1507;SDS011;745;48.586;10.032;2023-04-23T12:53:40;3.57;;;2.30;;
1507;SDS011;745;48.586;10.032;2023-04-23T12:58:11;2.20;;;2.00;;
1507;SDS011;745;48.586;10.032;2023-04-23T13:02:41;2.53;;;2.33;;
1507;SDS011;745;48.586;10.032;2023-04-23T13:07:14;2.37;;;2.10;;
1507;SDS011;745;48.586;10.032;2023-04-23T13:11:44;2.70;;;2.10;;
1507;SDS011;745;48.586;10.032;2023-04-23T13:16:17;2.63;;;2.30;;
1507;SDS011;745;48.586;10.032;2023-04-23T13:20:48;2.00;;;1.80;;
1507;SDS011;745;48.586;10.032;2023-04-23T13:25:18;2.60;;;1.60;;
1507;SDS011;745;48.586;10.032;2023-04-23T13:29:48;3.60;;;2.03;;
1507;SDS011;745;48.586;10.032;2023-04-23T13:34:19;2.27;;;2.00;;
1507;SDS011;745;48.586;10.032;2023-04-23T13:38:57;2.90;;;1.70;;
1507;SDS011;745;48.586;10.032;2023-04-23T13:43:40;2.03;;;1.83;;
1507;SDS011;745;48.586;10.032;2023-04-23T13:48:10;2.90;;;2.07;;
1507;SDS011;745;48.586;10.032;2023-04-23T13:52:40;2.77;;;2.23;;
1507;SDS011;745;48.586;10.032;2023-04-23T13:57:11;2.30;;;2.03;;
1507;SDS011;745;48.586;10.032;2023-04-23T14:01:41;2.60;;;1.80;;
1507;SDS011;745;48.586;10.032;2023-04-23T14:06:12;2.20;;;2.00;;
1507;SDS011;745;48.586;10.032;2023-04-23T14:10:42;4.57;;;2.33;;
1507;SDS011;745;48.586;10.032;2023-04-23T14:15:12;2.90;;;2.03;;
1507;SDS011;745;48.586;10.032;2023-04-23T14:19:43;2.33;;;1.90;;
1507;SDS011;745;48.586;10.032;2023-04-23T14:24:32;5.80;;;2.43;;
1507;SDS011;745;48.586;10.032;2023-04-23T14:29:17;4.37;;;2.87;;
1507;SDS011;745;48.586;10.032;2023-04-23T14:33:56;3.43;;;2.37;;
1507;SDS011;745;48.586;10.032;2023-04-23T14:38:28;2.03;;;1.90;;
1507;SDS011;745;48.586;10.032;2023-04-23T14:42:59;2.57;;;2.37;;
1507;SDS011;745;48.586;10.032;2023-04-23T14:47:30;4.50;;;2.10;;
1507;SDS011;745;48.586;10.032;2023-04-23T14:52:01;2.60;;;2.23;;
1507;SDS011;745;48.586;10.032;2023-04-23T14:56:33;2.60;;;2.40;;
1507;SDS011;745;48.586;10.032;2023-04-23T15:01:04;3.40;;;2.10;;
1507;SDS011;745;48.586;10.032;2023-04-23T15:05:37;2.80;;;2.60;;
1507;SDS011;745;48.586;10.032;2023-04-23T15:10:09;3.60;;;2.20;;
1507;SDS011;745;48.586;10.032;2023-04-23T15:14:40;6.30;;;2.30;;
1507;SDS011;745;48.586;10.032;2023-04-23T15:19:12;2.40;;;2.20;;
1507;SDS011;745;48.586;10.032;2023-04-23T15:23:43;3.93;;;2.10;;
1507;SDS011;745;48.586;10.032;2023-04-23T15:28:13;3.93;;;2.40;;
1507;SDS011;745;48.586;10.032;2023-04-23T15:32:44;3.60;;;2.60;;
1507;SDS011;745;48.586;10.032;2023-04-23T15:37:14;3.40;;;3.10;;
1507;SDS011;745;48.586;10.032;2023-04-23T15:41:45;3.20;;;2.27;;
1507;SDS011;745;48.586;10.032;2023-04-23T15:46:33;3.90;;;2.30;;
1507;SDS011;745;48.586;10.032;2023-04-23T15:51:05;3.80;;;2.70;;
1507;SDS011;745;48.586;10.032;2023-04-23T15:55:35;2.30;;;2.10;;
1507;SDS011;745;48.586;10.032;2023-04-23T16:00:08;2.50;;;2.30;;
1507;SDS011;745;48.586;10.032;2023-04-23T16:04:38;2.77;;;2.57;;
1507;SDS011;745;48.586;10.032;2023-04-23T16:09:09;3.27;;;2.70;;
1507;SDS011;745;48.586;10.032;2023-04-23T16:13:39;3.47;;;2.90;;
1507;SDS011;745;48.586;10.032;2023-04-23T16:18:09;4.60;;;2.90;;
1507;SDS011;745;48.586;10.032;2023-04-23T16:22:40;3.70;;;3.00;;
1507;SDS011;745;48.586;10.032;2023-04-23T16:27:10;3.60;;;2.60;;
1507;SDS011;745;48.586;10.032;2023-04-23T16:31:41;3.33;;;2.63;;
1507;SDS011;745;48.586;10.032;2023-04-23T16:36:12;4.60;;;2.40;;
1507;SDS011;745;48.586;10.032;2023-04-23T16:40:42;4.10;;;2.50;;
1507;SDS011;745;48.586;10.032;2023-04-23T16:45:16;3.53;;;2.90;;
1507;SDS011;745;48.586;10.032;2023-04-23T16:49:48;6.77;;;3.77;;
1507;SDS011;745;48.586;10.032;2023-04-23T16:54:19;5.33;;;3.20;;
1507;SDS011;745;48.586;10.032;2023-04-23T16:58:49;3.97;;;3.57;;
1507;SDS011;745;48.586;10.032;2023-04-23T17:03:20;2.67;;;2.47;;
1507;SDS011;745;48.586;10.032;2023-04-23T17:07:56;4.17;;;3.30;;
1507;SDS011;745;48.586;10.032;2023-04-23T17:12:27;2.60;;;2.40;;
1507;SDS011;745;48.586;10.032;2023-04-23T17:16:58;4.20;;;3.10;;
1507;SDS011;745;48.586;10.032;2023-04-23T17:21:28;2.43;;;2.20;;
1507;SDS011;745;48.586;10.032;2023-04-23T17:26:00;1.40;;;1.30;;
1507;SDS011;745;48.586;10.032;2023-04-23T17:30:31;1.80;;;1.40;;
1507;SDS011;745;48.586;10.032;2023-04-23T17:35:01;1.93;;;1.57;;
1507;SDS011;745;48.586;10.032;2023-04-23T17:39:31;1.50;;;1.40;;
1507;SDS011;745;48.586;10.032;2023-04-23T17:44:02;1.90;;;1.70;;
1507;SDS011;745;48.586;10.032;2023-04-23T17:48:32;2.97;;;2.13;;
1507;SDS011;745;48.586;10.032;2023-04-23T17:53:03;2.57;;;1.77;;
1507;SDS011;745;48.586;10.032;2023-04-23T17:57:33;1.87;;;1.60;;
1507;SDS011;745;48.586;10.032;2023-04-23T18:02:04;2.50;;;2.17;;
1507;SDS011;745;48.586;10.032;2023-04-23T18:06:35;2.93;;;2.37;;
1507;SDS011;745;48.586;10.032;2023-04-23T18:11:06;2.77;;;1.87;;
1507;SDS011;745;48.586;10.032;2023-04-23T18:15:37;2.07;;;1.67;;
1507;SDS011;745;48.586;10.032;2023-04-23T18:20:07;2.30;;;2.00;;
1507;SDS011;745;48.586;10.032;2023-04-23T18:24:39;1.40;;;1.30;;
1507;SDS011;745;48.586;10.032;2023-04-23T18:29:09;2.90;;;2.00;;
1507;SDS011;745;48.586;10.032;2023-04-23T18:33:59;6.13;;;2.13;;
1507;SDS011;745;48.586;10.032;2023-04-23T18:38:38;2.30;;;2.10;;
1507;SDS011;745;48.586;10.032;2023-04-23T18:43:12;2.80;;;2.60;;
1507;SDS011;745;48.586;10.032;2023-04-23T18:47:43;3.10;;;2.80;;
1507;SDS011;745;48.586;10.032;2023-04-23T18:52:19;3.40;;;2.30;;
1507;SDS011;745;48.586;10.032;2023-04-23T18:56:50;3.53;;;2.70;;
1507;SDS011;745;48.586;10.032;2023-04-23T19:01:22;3.57;;;3.10;;
1507;SDS011;745;48.586;10.032;2023-04-23T19:05:53;3.00;;;2.10;;
1507;SDS011;745;48.586;10.032;2023-04-23T19:10:24;2.87;;;2.20;;
1507;SDS011;745;48.586;10.032;2023-04-23T19:14:54;2.50;;;2.30;;
1507;SDS011;745;48.586;10.032;2023-04-23T19:19:25;2.43;;;2.23;;
1507;SDS011;745;48.586;10.032;2023-04-23T19:23:59;2.73;;;2.53;;
1507;SDS011;745;48.586;10.032;2023-04-23T19:28:30;3.43;;;2.60;;
1507;SDS011;745;48.586;10.032;2023-04-23T19:33:00;4.70;;;3.57;;
1507;SDS011;745;48.586;10.032;2023-04-23T19:37:31;7.70;;;3.87;;
1507;SDS011;745;48.586;10.032;2023-04-23T19:42:01;2.70;;;2.20;;
1507;SDS011;745;48.586;10.032;2023-04-23T19:46:33;5.37;;;3.80;;
1507;SDS011;745;48.586;10.032;2023-04-23T19:51:04;2.67;;;2.47;;
1507;SDS011;745;48.586;10.032;2023-04-23T19:55:35;4.90;;;3.07;;
1507;SDS011;745;48.586;10.032;2023-04-23T20:00:06;2.30;;;2.10;;
1507;SDS011;745;48.586;10.032;2023-04-23T20:04:41;3.40;;;2.47;;
1507;SDS011;745;48.586;10.032;2023-04-23T20:09:12;2.80;;;2.40;;
1507;SDS011;745;48.586;10.032;2023-04-23T20:13:50;2.50;;;2.30;;
1507;SDS011;745;48.586;10.032;2023-04-23T20:18:20;2.83;;;2.50;;
1507;SDS011;745;48.586;10.032;2023-04-23T20:22:51;2.47;;;2.27;;
1507;SDS011;745;48.586;10.032;2023-04-23T20:27:21;2.80;;;2.37;;
1507;SDS011;745;48.586;10.032;2023-04-23T20:31:52;2.90;;;1.93;;
1507;SDS011;745;48.586;10.032;2023-04-23T20:36:23;2.40;;;2.20;;
1507;SDS011;745;48.586;10.032;2023-04-23T20:40:57;4.27;;;2.63;;
1507;SDS011;745;48.586;10.032;2023-04-23T20:45:31;2.53;;;2.33;;
1507;SDS011;745;48.586;10.032;2023-04-23T20:50:03;2.00;;;1.90;;
1507;SDS011;745;48.586;10.032;2023-04-23T20:54:34;2.30;;;2.07;;
1507;SDS011;745;48.586;10.032;2023-04-23T20:59:06;2.63;;;2.10;;
1507;SDS011;745;48.586;10.032;2023-04-23T21:03:36;2.00;;;1.80;;
1507;SDS011;745;48.586;10.032;2023-04-23T21:08:14;2.67;;;1.77;;
1507;SDS011;745;48.586;10.032;2023-04-23T21:12:44;4.20;;;1.90;;
1507;SDS011;745;48.586;10.032;2023-04-23T21:17:15;2.70;;;2.00;;
1507;SDS011;745;48.586;10.032;2023-04-23T21:21:46;2.00;;;1.80;;
1507;SDS011;745;48.586;10.032;2023-04-23T21:26:16;1.43;;;1.33;;
1507;SDS011;745;48.586;10.032;2023-04-23T21:30:50;2.93;;;1.77;;
1507;SDS011;745;48.586;10.032;2023-04-23T21:35:21;2.70;;;1.50;;
1507;SDS011;745;48.586;10.032;2023-04-23T21:39:52;2.37;;;2.10;;
1507;SDS011;745;48.586;10.032;2023-04-23T21:44:22;3.07;;;1.53;;
1507;SDS011;745;48.586;10.032;2023-04-23T21:48:52;2.20;;;1.40;;
1507;SDS011;745;48.586;10.032;2023-04-23T21:53:23;1.90;;;1.60;;
1507;SDS011;745;48.586;10.032;2023-04-23T21:57:54;1.40;;;1.30;;
1507;SDS011;745;48.586;10.032;2023-04-23T22:02:24;1.77;;;1.67;;
1507;SDS011;745;48.586;10.032;2023-04-23T22:06:57;1.83;;;1.50;;
1507;SDS011;745;48.586;10.032;2023-04-23T22:11:33;2.17;;;1.50;;
1507;SDS011;745;48.586;10.032;2023-04-23T22:16:03;1.43;;;1.33;;
1507;SDS011;745;48.586;10.032;2023-04-23T22:20:34;1.40;;;1.30;;
1507;SDS011;745;48.586;10.032;2023-04-23T22:25:06;2.20;;;1.40;;
1507;SDS011;745;48.586;10.032;2023-04-23T22:29:38;1.40;;;1.30;;
1507;SDS011;745;48.586;10.032;2023-04-23T22:34:08;1.60;;;1.50;;
1507;SDS011;745;48.586;10.032;2023-04-23T22:38:50;1.67;;;1.40;;
1507;SDS011;745;48.586;10.032;2023-04-23T22:43:33;1.93;;;1.27;;
1507;SDS011;745;48.586;10.032;2023-04-23T22:48:03;1.50;;;1.40;;
1507;SDS011;745;48.586;10.032;2023-04-23T22:52:34;1.97;;;1.27;;
1507;SDS011;745;48.586;10.032;2023-04-23T22:57:04;1.50;;;1.40;;
1507;SDS011;745;48.586;10.032;2023-04-23T23:01:34;1.60;;;1.50;;
1507;SDS011;745;48.586;10.032;2023-04-23T23:06:08;1.93;;;1.50;;
1507;SDS011;745;48.586;10.032;2023-04-23T23:10:38;1.67;;;1.50;;
1507;SDS011;745;48.586;10.032;2023-04-23T23:15:09;1.53;;;1.43;;
1507;SDS011;745;48.586;10.032;2023-04-23T23:19:40;1.60;;;1.50;;
1507;SDS011;745;48.586;10.032;2023-04-23T23:24:10;1.60;;;1.50;;
1507;SDS011;745;48.586;10.032;2023-04-23T23:28:40;1.80;;;1.47;;
1507;SDS011;745;48.586;10.032;2023-04-23T23:33:11;1.67;;;1.57;;
1507;SDS011;745;48.586;10.032;2023-04-23T23:37:47;2.10;;;1.77;;
1507;SDS011;745;48.586;10.032;2023-04-23T23:42:18;2.20;;;2.00;;
1507;SDS011;745;48.586;10.032;2023-04-23T23:46:55;2.97;;;2.00;;
1507;SDS011;745;48.586;10.032;2023-04-23T23:51:29;3.10;;;2.37;;
1507;SDS011;745;48.586;10.032;2023-04-23T23:56:00;3.80;;;3.40;;
